Terminal Aerodrome Forecast
Issued by NWS Cleveland, OH

Home | Current Version | Previous Version | Graphics & Text | Print | Product List | Glossary Off
Versions: 1 2 3 4 5 6 7 8 9 10 11 12 13 14 15 16 17 18 19 20 21 22

111
FTUS41 KCLE 171739
TAFTOL
TAF
KTOL 171739Z 1718/1818 24015G25KT P6SM OVC012
     FM171900 25014KT P6SM OVC006
      TEMPO 1719/1722 25012G20KT 3SM BR OVC003
     FM180100 27009KT 5SM BR OVC006
     FM181400 27007KT P6SM OVC006=

USA.gov is the U.S. government's official web portal to all federal, state and local government web resources and services.